Terminal Aerodrome Forecast
Issued by NWS

Home | Current Version | Previous Version | Text Only | Print | Product List | Glossary On
Versions: 1 2 3 4 5 6 7 8 9 10 11 12 13 14 15 16 17
000
FTUS44 KSJT 070400 AAA
TAFBBD
TAF AMD
KBBD 070427Z 0704/0724 17010KT P6SM BKN250
     FM071000 15010KT P6SM SCT015
      TEMPO 0711/0715 BKN015
     FM071600 16011KT P6SM BKN030
     FM071800 16012KT P6SM BKN040
     FM072300 15008KT P6SM VCSH BKN040=

USA.gov is the U.S. government's official web portal to all federal, state and local government web resources and services.